METAR Data
IDs: Format: Raw Decoded Include TAF

Data at: 0720 UTC 03 Aug 2021

KMHR 030715Z AUTO 16004KT 10SM CLR 19/10 A2996 RMK A01
KMHR 030655Z AUTO 17004KT 10SM CLR 20/10 A2996 RMK A01
KMHR 030635Z AUTO 18006KT 10SM CLR 19/10 A2995 RMK A01
KMHR 030615Z AUTO 16004KT 10SM CLR 20/10 A2995 RMK A01
KMHR 030555Z AUTO 20005KT 10SM CLR 21/10 A2995 RMK A01
KMHR 030535Z AUTO 21005KT 10SM CLR 22/10 A2995 RMK A01
KMHR 030515Z AUTO 22008KT 10SM CLR 23/10 A2995 RMK A01
KMHR 030455Z AUTO 22007KT 10SM CLR 23/08 A2995 RMK A01
KMHR 030435Z AUTO 22007KT 10SM CLR 24/08 A2994 RMK A01
KMHR 030415Z AUTO 22007KT 10SM CLR 25/07 A2994 RMK A01
KMHR 030355Z AUTO 23006KT 10SM CLR 26/06 A2994 RMK A01
KMHR 030335Z AUTO 22005KT 10SM CLR 28/05 A2994 RMK A01
KMHR 030315Z AUTO 23007KT 10SM CLR 29/02 A2994 RMK A01
KMHR 030255Z 23006KT 10SM BKN150 31/01 A2994
KMHR 030230Z AUTO 23009KT 10SM CLR 33/M01 A2994 RMK A01
KMHR 030215Z AUTO 22006KT 10SM CLR 33/M02 A2994 RMK A01
KMHR 030155Z AUTO 21007KT 10SM CLR 34/M03 A2994 RMK A01
KMHR 030135Z AUTO 22005KT 10SM CLR 33/M04 A2994 RMK A01
KMHR 030115Z AUTO VRB06KT 10SM CLR 35/M03 A2995 RMK A01
KMHR 030055Z AUTO 23006G11KT 10SM CLR 35/M04 A2995 RMK A01
KMHR 030035Z AUTO 21005KT 10SM CLR 34/M04 A2996 RMK A01
KMHR 030015Z AUTO 22005KT 10SM CLR 34/M03 A2996 RMK A01
KMHR 022355Z AUTO 21004KT 10SM CLR 34/M04 A2996 RMK A01
KMHR 022335Z AUTO 20004KT 10SM CLR 34/M03 A2997 RMK A01
KMHR 022315Z AUTO 00000KT 10SM CLR 34/M03 A2997 RMK A01
KMHR 022255Z AUTO 23008KT 120V260 10SM CLR 34/M03 A2998 RMK A01
KMHR 022235Z AUTO VRB03G11KT 10SM CLR 33/M04 A2999 RMK A01
KMHR 022215Z AUTO VRB05KT 10SM CLR 33/M02 A3000 RMK A01
KMHR 022155Z AUTO VRB04G11KT 10SM CLR 32/02 A3000 RMK A01
KMHR 022135Z AUTO VRB05G10KT 10SM CLR 32/03 A3001 RMK A01
KMHR 022115Z AUTO VRB06G11KT 10SM CLR 31/03 A3002 RMK A01
KMHR 022055Z AUTO 23009KT 10SM CLR 31/04 A3003 RMK A01
KMHR 022035Z 24008KT 10SM CLR 30/05 A3003 RMK A01 HZ ALL QUAD
KMHR 022015Z 27008KT 10SM CLR 29/06 A3004 RMK A01 HZ ALL QUAD
KMHR 021955Z VRB05G11KT 10SM CLR 28/06 A3004 RMK A01 HZ ALL QUAD
KMHR 021935Z 25005KT 10SM CLR 27/07 A3005 RMK A01 HZ ALL QUAD
KMHR 021915Z 23006KT 10SM CLR 26/08 A3005 RMK A01 HZ ALL QUAD
KMHR 021855Z VRB05G11KT 10SM CLR 26/09 A3006 RMK A01 HZ ALL QUAD
KMHR 021835Z VRB05KT 10SM CLR 25/10 A3006 RMK A01 FUHZ ALL QUAD
KMHR 021815Z VRB05KT 10SM CLR 24/10 A3007 RMK A01 FUHZ ALL QUAD
KMHR 021755Z VRB06KT 10SM SKC 23/11 A3007 RMK A01 FUHZ ALL QUAD
KMHR 021735Z 26006KT 10SM FU SKC 23/11 A3007 RMK A01
KMHR 021710Z AUTO VRB05G10KT 10SM BKN013 21/11 A3007 RMK A01
KMHR 021655Z AUTO VRB06KT 10SM OVC013 20/11 A3007 RMK A01
KMHR 021635Z AUTO 20005KT 10SM OVC014 19/11 A3008 RMK A01
KMHR 021615Z AUTO 20007KT 10SM OVC014 19/11 A3008 RMK A01
KMHR 021555Z AUTO 18007KT 10SM BKN014 18/11 A3008 RMK A01
KMHR 021550Z 17004G10KT 10SM FEW250 18/11 A3008
KMHR 021535Z AUTO 19005KT 10SM SCT014 17/11 A3008 RMK A01
KMHR 021515Z AUTO 17005KT 10SM FEW014 17/11 A3008 RMK A01
KMHR 021455Z AUTO 18007KT 10SM CLR 16/11 A3008 RMK A01
KMHR 021445Z 17008KT 10SM SCT150 16/11 A3008
KMHR 021435Z AUTO 18007KT 10SM CLR 16/11 A3008 RMK A01
KMHR 021410Z AUTO 15006KT 10SM CLR 15/12 A3007 RMK A01
KMHR 021355Z AUTO 14005KT 10SM FEW014 14/12 A3007 RMK A01
KMHR 021350Z 13005KT 10SM SKC 14/11 A3007
KMHR 021335Z AUTO 13006KT 10SM BKN015 13/11 A3006 RMK A01
KMHR 021315Z AUTO 6/54166707KT 10SM BKN015 13/11 A3006 RMK A01
KMHR 021255Z AUTO 14006KT 10SM OVC015 13/11 A3005 RMK A01
KMHR 021250Z 13007KT 10SM FEW100 13/00 A3005
KMHR 021235Z AUTO 14006KT 10SM OVC015 13/11 A3004 RMK A01
KMHR 021215Z AUTO 14006KT 10SM OVC014 13/11 A3003 RMK A01
KMHR 021155Z AUTO 14005KT 10SM OVC015 13/11 A3004 RMK A01
KMHR 021150Z 13006KT 10SM OVC015 15/11 A3004
KMHR 021135Z AUTO 14006KT 10SM OVC015 13/11 A3004 RMK A01
KMHR 021110Z AUTO 15006KT 10SM OVC015 13/11 A3004 RMK A01
KMHR 021055Z AUTO 14005KT 10SM BKN016 14/11 A3003 RMK A01
KMHR 021035Z AUTO 15005KT 10SM FEW016 14/11 A3003 RMK A01
KMHR 021015Z AUTO 13006KT 10SM CLR 14/11 A3003 RMK A01
KMHR 020955Z AUTO 13007KT 10SM CLR 15/11 A3003 RMK A01
KMHR 020935Z AUTO 13007KT 10SM CLR 15/11 A3003 RMK A01
KMHR 020915Z AUTO 14008KT 10SM CLR 16/11 A3003 RMK A01
KMHR 020855Z AUTO 15006KT 10SM CLR 15/11 A3003 RMK A01
KMHR 020835Z AUTO 17007KT 10SM CLR 17/11 A3003 RMK A01
KMHR 020815Z AUTO 16007KT 10SM CLR 17/11 A3002 RMK A01
KMHR 020755Z AUTO 14007KT 10SM CLR 16/11 A3002 RMK A01
KMHR 020735Z AUTO 15007KT 10SM CLR 17/11 A3002 RMK A01
KMHR 020715Z AUTO 15007KT 10SM CLR 17/11 A3001 RMK A01
KMHR 020655Z AUTO 14007KT 10SM CLR 17/11 A3001 RMK A01
KMHR 020635Z AUTO 14007KT 10SM CLR 17/11 A3001 RMK A01
KMHR 020615Z AUTO 14006KT 10SM CLR 18/11 A3000 RMK A01
KMHR 020555Z AUTO 16007KT 10SM CLR 19/11 A3001 RMK A01
KMHR 020530Z AUTO 16006KT 10SM CLR 19/11 A3000 RMK A01
KMHR 020515Z AUTO 17007KT 10SM CLR 20/11 A3000 RMK A01
KMHR 020455Z AUTO 17007KT 10SM CLR 20/11 A3000 RMK A01
KMHR 020435Z AUTO 17007KT 10SM CLR 21/11 A2999 RMK A01
KMHR 020415Z AUTO 20008KT 10SM CLR 22/11 A2998 RMK A01
KMHR 020355Z AUTO 20006KT 10SM CLR 23/11 A2997 RMK A01
KMHR 020345Z 18006KT 10SM SKC 24/10 A2996
KMHR 020335Z AUTO 21008KT 10SM CLR 25/10 A2995 RMK A01
KMHR 020315Z AUTO 22008G14KT 10SM CLR 26/10 A2995 RMK A01
KMHR 020255Z AUTO 22011KT 10SM CLR 28/09 A2994 RMK A01
KMHR 020245Z 20009KT 10SM SKC 28/09 A2994
KMHR 020235Z AUTO 23011G17KT 10SM CLR 29/09 A2993 RMK A01
KMHR 020215Z AUTO 21011G17KT 10SM CLR 31/06 A2993 RMK A01
KMHR 020155Z AUTO 21014KT 10SM CLR 32/06 A2993 RMK A01
KMHR 020145Z 21012KT 10SM SKC 32/06 A2992
KMHR 020135Z AUTO 22013KT 10SM CLR 32/06 A2992 RMK A01
KMHR 020115Z AUTO 22014KT 10SM CLR 33/05 A2992 RMK A01
KMHR 020055Z AUTO 22013KT 10SM CLR 33/07 A2992 RMK A01
KMHR 020045Z 20011KT 10SM SKC 34/07 A2992
KMHR 020035Z AUTO 21012KT 10SM CLR 34/07 A2992 RMK A01
KMHR 020015Z AUTO 22012KT 10SM CLR 35/07 A2992 RMK A01
KMHR 012355Z AUTO 22010KT 10SM CLR 35/07 A2992 RMK A01
KMHR 012345Z 25007G14KT 10SM SKC 35/07 A2992
KMHR 012335Z AUTO 24009KT 10SM CLR 35/08 A2992 RMK A01
KMHR 012315Z AUTO 23009KT 10SM CLR 35/07 A2992 RMK A01
KMHR 012255Z AUTO 25009KT 10SM CLR 35/09 A2993 RMK A01
KMHR 012245Z 22009KT 10SM SKC 35/08 A2993
KMHR 012235Z AUTO 23011KT 10SM CLR 34/09 A2994 RMK A01
KMHR 012215Z AUTO 25008KT 10SM CLR 34/10 A2994 RMK A01
KMHR 012155Z AUTO 23007KT 200V280 10SM CLR 34/11 A2995 RMK A01
KMHR 012147Z 22008KT 10SM SKC 34/10 A2995
KMHR 012135Z AUTO 24007KT 10SM CLR 33/11 A2995 RMK A01
KMHR 012115Z AUTO VRB05G11KT 10SM CLR 32/11 A2996 RMK A01
KMHR 012055Z AUTO VRB03G10KT 10SM CLR 32/11 A2997 RMK A01
KMHR 012045Z 19006KT 10SM SKC 31/11 A2997
KMHR 012035Z AUTO 23005G11KT 10SM CLR 31/11 A2997 RMK A01
KMHR 012015Z AUTO 25007KT 220V280 10SM CLR 31/11 A2998 RMK A01
KMHR 011955Z AUTO 24008KT 10SM CLR 30/11 A2998 RMK A01
KMHR 011935Z AUTO 22007KT 10SM CLR 29/12 A2999 RMK A01